»·PEaware :: N7087P L37-KIWA

N7087P :: L37-KIWA

FLIGHT INFORMATION

Flight Status: Arrived
Operator: Privately registered:
United States
More flights under this callsign
Pilot: David B. (31254)
Aircraft: CESSNA 152 AEROBAT
(C152)
More flights by this aircraft type
Origin: L37 Grand Canyon Caverns
United States
Destination: KIWA Williams Gateway
United States
More flights between these airports :: More routes between these airports
Route: DRK MAIER BANYO LAKEY
File this flight plan on PilotEdge
Remarks:
Altitude:
(Current/Filed)
9,500ft
Speed:
(Current/Filed)
107kts
Departed: 12-Oct-20 08:57 PM
Arrived: 12-Oct-20 10:47 PM
Distance/Time
Traveled:
153nm/1:50
Distance/Time
To Go:
Arrived

Flight Plot

Page will automatically refresh every two minutes.

Flight plan parsing failed; only flown route is shown


Map Options




Map Legend


Flown Route
Filed Route
Departure Airport
Arrival Airport
Navaid (VOR, NDB)
Fix

Horizontal Profiles

Position Reports

Time Latitude Longitude Heading Altitude Ground
Speed
12-Oct-20 20:54 35.529975 -113.239676 311 5399ft 0kts
12-Oct-20 20:55 35.529975 -113.239676 311 5399ft 0kts
12-Oct-20 20:56 35.528172 -113.244962 244 5412ft 68kts
12-Oct-20 20:57 35.517319 -113.267990 194 5902ft 86kts
12-Oct-20 20:58 35.501184 -113.250548 129 6538ft 81kts
12-Oct-20 20:59 35.484947 -113.231198 139 7093ft 83kts
12-Oct-20 21:00 35.465268 -113.217333 155 7626ft 84kts
12-Oct-20 21:01 35.445517 -113.202144 156 8127ft 84kts
12-Oct-20 21:02 35.422156 -113.199825 181 8585ft 86kts
12-Oct-20 21:03 35.398332 -113.201105 182 9028ft 85kts
12-Oct-20 21:04 35.375527 -113.193143 138 9363ft 86kts
12-Oct-20 21:05 35.358004 -113.172172 128 9512ft 89kts
12-Oct-20 21:06 35.342657 -113.148295 134 9654ft 90kts
12-Oct-20 21:07 35.324327 -113.127698 135 9714ft 93kts
12-Oct-20 21:08 35.302886 -113.111077 154 9478ft 90kts
12-Oct-20 21:09 35.281447 -113.095850 143 9492ft 89kts
12-Oct-20 21:10 35.262199 -113.074922 135 9494ft 94kts
12-Oct-20 21:11 35.244041 -113.051892 132 9497ft 94kts
12-Oct-20 21:12 35.226021 -113.028118 132 9483ft 95kts
12-Oct-20 21:13 35.207976 -113.004447 130 9471ft 95kts
12-Oct-20 21:14 35.187032 -112.984480 146 9449ft 95kts
12-Oct-20 21:15 35.165038 -112.966366 142 9456ft 95kts
12-Oct-20 21:16 35.145677 -112.944302 141 9460ft 96kts
12-Oct-20 21:17 35.124041 -112.924129 143 9318ft 98kts
12-Oct-20 21:18 35.102284 -112.903977 137 9197ft 97kts
12-Oct-20 21:19 35.081619 -112.882556 143 9082ft 97kts
12-Oct-20 21:20 35.063109 -112.859185 119 9029ft 95kts
12-Oct-20 21:21 35.048121 -112.833542 148 8988ft 92kts
12-Oct-20 21:22 35.027237 -112.815542 140 9033ft 91kts
12-Oct-20 21:23 35.007925 -112.795813 140 9104ft 91kts
12-Oct-20 21:24 34.987999 -112.777016 146 9177ft 90kts
12-Oct-20 21:25 34.968013 -112.758504 132 9241ft 90kts
12-Oct-20 21:26 34.957993 -112.741055 131 9236ft 93kts
12-Oct-20 21:27 34.937839 -112.722966 148 9313ft 90kts
12-Oct-20 21:28 34.917793 -112.704868 140 9369ft 91kts
12-Oct-20 21:29 34.896257 -112.688809 148 9421ft 90kts
12-Oct-20 21:30 34.875288 -112.671374 147 9458ft 91kts
12-Oct-20 21:32 34.855064 -112.651952 128 9450ft 93kts
12-Oct-20 21:33 34.841485 -112.624948 115 9435ft 93kts
12-Oct-20 21:34 34.821824 -112.604720 141 9428ft 92kts
12-Oct-20 21:35 34.801532 -112.583998 139 9360ft 95kts
12-Oct-20 21:36 34.781251 -112.562972 139 9295ft 96kts
12-Oct-20 21:37 34.760984 -112.541778 138 9235ft 96kts
12-Oct-20 21:38 34.741180 -112.519955 139 9174ft 95kts
12-Oct-20 21:39 34.720405 -112.499712 141 9123ft 95kts
12-Oct-20 21:40 34.700139 -112.478888 137 9094ft 95kts
12-Oct-20 21:41 34.681207 -112.456631 137 9078ft 94kts
12-Oct-20 21:42 34.662726 -112.434068 136 9084ft 94kts
12-Oct-20 21:43 34.644111 -112.412086 133 9107ft 93kts
12-Oct-20 21:44 34.625029 -112.391063 143 9127ft 93kts
12-Oct-20 21:45 34.605134 -112.371034 142 9153ft 93kts
12-Oct-20 21:46 34.585358 -112.351100 138 9192ft 92kts
12-Oct-20 21:46 34.568974 -112.334321 138 9223ft 92kts
12-Oct-20 21:48 34.546811 -112.309579 141 9250ft 92kts
12-Oct-20 21:48 34.529597 -112.293841 141 9276ft 93kts
12-Oct-20 21:49 34.509142 -112.274557 140 9302ft 93kts
12-Oct-20 21:51 34.484962 -112.253534 152 9325ft 92kts
12-Oct-20 21:51 34.465342 -112.242613 158 9333ft 93kts
12-Oct-20 21:53 34.438855 -112.225374 171 9359ft 94kts
12-Oct-20 21:53 34.417531 -112.221071 167 9391ft 93kts
12-Oct-20 21:54 34.392489 -112.212950 169 9406ft 93kts
12-Oct-20 21:55 34.366671 -112.208594 169 9429ft 93kts
12-Oct-20 21:56 34.341379 -112.201763 166 9444ft 93kts
12-Oct-20 21:57 34.316217 -112.192672 160 9430ft 95kts
12-Oct-20 21:58 34.290934 -112.183203 165 9396ft 95kts
12-Oct-20 21:59 34.265031 -112.176503 166 9367ft 95kts
12-Oct-20 22:00 34.239120 -112.170015 170 9346ft 94kts
12-Oct-20 22:01 34.213076 -112.164574 169 9319ft 94kts
12-Oct-20 22:02 34.187364 -112.157392 166 9290ft 95kts
12-Oct-20 22:03 34.161577 -112.150200 170 9262ft 95kts
12-Oct-20 22:04 34.135337 -112.146637 179 9238ft 94kts
12-Oct-20 22:05 34.108997 -112.148774 188 9225ft 95kts
12-Oct-20 22:06 34.083208 -112.144010 160 9211ft 95kts
12-Oct-20 22:07 34.058199 -112.133500 161 9197ft 94kts
12-Oct-20 22:08 34.032399 -112.128881 176 9189ft 94kts
12-Oct-20 22:09 34.006315 -112.125005 168 9199ft 94kts
12-Oct-20 22:10 33.980866 -112.116610 163 8695ft 94kts
12-Oct-20 22:11 33.956132 -112.105096 157 7713ft 94kts
12-Oct-20 22:12 33.930919 -112.097040 163 6812ft 92kts
12-Oct-20 22:13 33.905798 -112.090085 168 5940ft 92kts
12-Oct-20 22:14 33.880743 -112.085122 173 5325ft 91kts
12-Oct-20 22:15 33.856419 -112.076814 160 5394ft 94kts
12-Oct-20 22:16 33.831469 -112.065750 135 5305ft 98kts
12-Oct-20 22:17 33.814876 -112.040100 128 5236ft 97kts
12-Oct-20 22:18 33.796879 -112.015791 132 5146ft 97kts
12-Oct-20 22:19 33.777357 -111.993428 132 5069ft 97kts
12-Oct-20 22:20 33.762096 -111.966622 126 5027ft 96kts
12-Oct-20 22:21 33.744371 -111.942464 135 4956ft 96kts
12-Oct-20 22:22 33.723735 -111.921795 145 4917ft 96kts
12-Oct-20 22:23 33.703386 -111.901287 126 4870ft 96kts
12-Oct-20 22:24 33.683554 -111.880437 158 4807ft 97kts
12-Oct-20 22:25 33.657098 -111.875668 166 4771ft 96kts
12-Oct-20 22:26 33.631278 -111.867311 165 4733ft 96kts
12-Oct-20 22:27 33.608371 -111.851327 146 3973ft 97kts
12-Oct-20 22:28 33.587038 -111.831897 143 3599ft 96kts
12-Oct-20 22:29 33.567085 -111.810934 138 3477ft 96kts
12-Oct-20 22:30 33.548588 -111.788688 127 3627ft 94kts
12-Oct-20 22:31 33.530552 -111.765832 145 3734ft 94kts
12-Oct-20 22:32 33.507882 -111.749680 147 3838ft 95kts
12-Oct-20 22:33 33.486169 -111.731564 129 3928ft 95kts
12-Oct-20 22:34 33.470665 -111.705716 128 4011ft 95kts
12-Oct-20 22:35 33.453668 -111.681267 121 3664ft 95kts
12-Oct-20 22:36 33.439265 -111.654643 121 3709ft 94kts
12-Oct-20 22:37 33.420817 -111.633954 177 3302ft 99kts
12-Oct-20 22:38 33.394438 -111.638425 189 2790ft 95kts
12-Oct-20 22:39 33.368599 -111.642429 187 2416ft 88kts
12-Oct-20 22:40 33.345031 -111.644851 182 2324ft 83kts
12-Oct-20 22:41 33.323847 -111.638544 131 2262ft 82kts
12-Oct-20 22:42 33.309661 -111.618474 127 2265ft 75kts
12-Oct-20 22:43 33.295323 -111.601113 153 2313ft 74kts
12-Oct-20 22:44 33.283366 -111.617601 291 2198ft 77kts
12-Oct-20 22:45 33.294142 -111.633990 315 1570ft 55kts
12-Oct-20 22:46 33.303702 -111.645117 315 1379ft 38kts
12-Oct-20 22:47 33.311553 -111.654397 284 1367ft 22kts
12-Oct-20 22:48 33.307066 -111.660375 223 1357ft 30kts
12-Oct-20 22:49 33.304330 -111.661913 356 1358ft 0kts
12-Oct-20 22:50 33.304330 -111.661913 356 1358ft 0kts
12-Oct-20 22:51 33.304330 -111.661913 356 1358ft 0kts
12-Oct-20 22:52 33.304330 -111.661913 356 1358ft 0kts
12-Oct-20 22:53 33.304330 -111.661913 356 1358ft 0kts
12-Oct-20 22:54 33.304330 -111.661913 356 1358ft 0kts
12-Oct-20 22:55 33.304330 -111.661913 356 1358ft 0kts
12-Oct-20 22:56 33.304330 -111.661913 356 1358ft 0kts
12-Oct-20 22:57 33.304330 -111.661913 356 1358ft 0kts
12-Oct-20 22:58 33.306683 -111.660727 42 1357ft 10kts
12-Oct-20 22:59 33.316656 -111.673013 309 1625ft 83kts
12-Oct-20 23:00 33.334373 -111.666598 51 2300ft 82kts

Navigation Log

Ident Type
Flight plan parsing failed, navigation log unavailable